Time;durP1;ratioP1;P1;durP2;ratioP2;P2;SDS_P1;SDS_P2;PMS_P1;PMS_P2;Temp;Humidity;BMP_temperature;BMP_pressure;BME280_temperature;BME280_humidity;BME280_pressure;Samples;Min_cycle;Max_cycle;Signal;HPM_P1;HPM_P2
2022/05/04 00:00:14;;;;;;;4.28;2.60;;;;;;;;;;5069831;28;20040;-78
2022/05/04 00:02:40;;;;;;;6.57;2.55;;;;;;;;;;5072000;28;20491;-78
2022/05/04 00:05:07;;;;;;;5.35;2.53;;;;;;;;;;5073955;28;20181;-79
2022/05/04 00:07:33;;;;;;;7.07;2.50;;;;;;;;;;5055750;28;20388;-78
2022/05/04 00:09:59;;;;;;;6.50;2.40;;;;;;;;;;5065668;28;20075;-78
2022/05/04 00:12:28;;;;;;;6.97;2.97;;;;;;;;;;5069809;28;20036;-78
2022/05/04 00:14:54;;;;;;;6.82;2.97;;;;;;;;;;5068841;28;20048;-78
2022/05/04 00:17:20;;;;;;;5.75;2.50;;;;;;;;;;5072139;28;20045;-78
2022/05/04 00:19:46;;;;;;;6.40;2.80;;;;;;;;;;5073592;28;20059;-79
2022/05/04 00:22:16;;;;;;;7.53;2.92;;;;;;;;;;5076607;28;20040;-78
2022/05/04 00:24:42;;;;;;;6.75;2.50;;;;;;;;;;5077258;28;20402;-78
2022/05/04 00:27:08;;;;;;;5.55;2.40;;;;;;;;;;5069166;28;20044;-78
2022/05/04 00:29:34;;;;;;;7.68;2.60;;;;;;;;;;5068805;28;20142;-78
2022/05/04 00:32:00;;;;;;;5.53;2.75;;;;;;;;;;5069385;28;20140;-79
2022/05/04 00:34:26;;;;;;;5.47;2.60;;;;;;;;;;5069475;28;20043;-79
2022/05/04 00:36:52;;;;;;;6.05;2.60;;;;;;;;;;5067327;28;20555;-79
2022/05/04 00:39:18;;;;;;;6.10;2.47;;;;;;;;;;5067645;28;20490;-79
2022/05/04 00:41:48;;;;;;;4.10;2.35;;;;;;;;;;5073727;28;20044;-79
2022/05/04 00:44:14;;;;;;;6.43;2.67;;;;;;;;;;5070594;28;20486;-79
2022/05/04 00:46:42;;;;;;;6.03;2.67;;;;;;;;;;5068821;28;20041;-79
2022/05/04 00:49:08;;;;;;;6.78;2.97;;;;;;;;;;5066230;28;20079;-79
2022/05/04 00:51:35;;;;;;;6.63;2.72;;;;;;;;;;5070420;28;20094;-79
2022/05/04 00:54:01;;;;;;;6.00;2.60;;;;;;;;;;5067366;28;20407;-80
2022/05/04 00:56:27;;;;;;;5.25;2.70;;;;;;;;;;5069105;28;20056;-79
2022/05/04 00:58:56;;;;;;;5.05;3.25;;;;;;;;;;5059252;28;20040;-79
2022/05/04 01:01:24;;;;;;;5.72;3.05;;;;;;;;;;5068019;28;20085;-80
2022/05/04 01:03:50;;;;;;;6.70;2.40;;;;;;;;;;5063726;28;20155;-79
2022/05/04 01:06:16;;;;;;;4.28;2.90;;;;;;;;;;5070256;28;20048;-78
2022/05/04 01:08:42;;;;;;;5.15;2.45;;;;;;;;;;5075108;28;20445;-78
2022/05/04 01:11:08;;;;;;;6.43;2.65;;;;;;;;;;5063103;28;20418;-79
2022/05/04 01:13:34;;;;;;;4.03;2.53;;;;;;;;;;5073134;28;20124;-80
2022/05/04 01:16:01;;;;;;;4.95;2.40;;;;;;;;;;5074691;28;20181;-78
2022/05/04 01:18:27;;;;;;;5.22;2.25;;;;;;;;;;5066816;28;20504;-78
2022/05/04 01:20:53;;;;;;;4.88;3.17;;;;;;;;;;5072421;28;20138;-78
2022/05/04 01:23:19;;;;;;;5.10;2.50;;;;;;;;;;5072173;28;20054;-78
2022/05/04 01:25:45;;;;;;;7.95;3.03;;;;;;;;;;5065338;28;20041;-78
2022/05/04 01:28:12;;;;;;;11.13;3.50;;;;;;;;;;5075016;28;20047;-79
2022/05/04 01:30:39;;;;;;;6.35;2.90;;;;;;;;;;5065674;28;20167;-80
2022/05/04 01:33:05;;;;;;;6.45;2.55;;;;;;;;;;5065904;28;20068;-80
2022/05/04 01:35:31;;;;;;;3.67;2.58;;;;;;;;;;5068760;28;20097;-80
2022/05/04 01:37:57;;;;;;;9.43;2.95;;;;;;;;;;5070089;28;20056;-79
2022/05/04 01:40:23;;;;;;;6.07;2.90;;;;;;;;;;5068291;28;20083;-79
2022/05/04 01:42:50;;;;;;;8.25;3.05;;;;;;;;;;5071748;28;20052;-79
2022/05/04 01:45:16;;;;;;;5.70;2.90;;;;;;;;;;5065329;28;20045;-79
2022/05/04 01:47:46;;;;;;;5.45;2.67;;;;;;;;;;5068084;28;20385;-79
2022/05/04 01:50:12;;;;;;;2.38;2.17;;;;;;;;;;5070254;28;20052;-79
2022/05/04 01:52:38;;;;;;;5.07;2.63;;;;;;;;;;5071252;28;20085;-80
2022/05/04 01:55:04;;;;;;;5.57;2.50;;;;;;;;;;5068669;28;20048;-80
2022/05/04 01:57:31;;;;;;;5.85;2.38;;;;;;;;;;5068211;28;20062;-80
2022/05/04 02:00:00;;;;;;;4.88;2.50;;;;;;;;;;5065684;28;20106;-80
2022/05/04 02:02:26;;;;;;;6.90;2.55;;;;;;;;;;5068003;28;20048;-78
2022/05/04 02:04:53;;;;;;;8.32;2.70;;;;;;;;;;5067958;28;20052;-78
2022/05/04 02:07:19;;;;;;;6.25;2.47;;;;;;;;;;5062168;28;20045;-78
2022/05/04 02:09:46;;;;;;;3.92;2.17;;;;;;;;;;5074994;28;20048;-79
2022/05/04 02:12:12;;;;;;;5.13;2.70;;;;;;;;;;5068366;28;20041;-79
2022/05/04 02:14:38;;;;;;;6.10;2.63;;;;;;;;;;5071088;28;20120;-79
2022/05/04 02:17:04;;;;;;;6.72;2.58;;;;;;;;;;5068226;28;20040;-79
2022/05/04 02:19:30;;;;;;;6.63;2.55;;;;;;;;;;5072663;28;20082;-78
2022/05/04 02:21:57;;;;;;;5.50;2.58;;;;;;;;;;5068703;28;20491;-79
2022/05/04 02:24:23;;;;;;;6.30;2.50;;;;;;;;;;5081665;28;20514;-79
2022/05/04 02:26:52;;;;;;;5.80;2.40;;;;;;;;;;5080692;28;20462;-79
2022/05/04 02:29:20;;;;;;;6.05;2.40;;;;;;;;;;5069981;28;20045;-78
2022/05/04 02:31:46;;;;;;;6.75;2.97;;;;;;;;;;5070949;28;20051;-78
2022/05/04 02:34:15;;;;;;;8.23;2.83;;;;;;;;;;5071816;28;20045;-77
2022/05/04 02:39:25;;;;;;;5.22;2.72;;;;;;;;;;5072277;28;20044;-78
2022/05/04 02:41:52;;;;;;;5.30;2.60;;;;;;;;;;5073079;28;20055;-79
2022/05/04 02:44:20;;;;;;;4.35;2.20;;;;;;;;;;5057072;28;20040;-79
2022/05/04 02:46:48;;;;;;;4.60;2.25;;;;;;;;;;5071988;28;20080;-79
2022/05/04 02:49:15;;;;;;;3.55;2.30;;;;;;;;;;5069571;28;20109;-79
2022/05/04 02:51:43;;;;;;;4.63;2.53;;;;;;;;;;5067923;28;20052;-79
2022/05/04 02:54:09;;;;;;;6.40;2.63;;;;;;;;;;5070414;28;20103;-79
2022/05/04 02:56:38;;;;;;;2.85;2.50;;;;;;;;;;5076041;28;20044;-79
2022/05/04 02:59:05;;;;;;;4.95;2.38;;;;;;;;;;5071997;28;20977;-80
2022/05/04 03:04:15;;;;;;;5.03;2.58;;;;;;;;;;5070416;28;20557;-77
2022/05/04 03:06:42;;;;;;;6.50;2.80;;;;;;;;;;5067794;28;20078;-78
2022/05/04 03:09:09;;;;;;;5.32;2.63;;;;;;;;;;5070593;28;20052;-78
2022/05/04 03:11:56;;;;;;;5.47;2.80;;;;;;;;;;5074718;28;20037;-79
2022/05/04 03:14:23;;;;;;;5.88;2.47;;;;;;;;;;5066624;28;20040;-78
2022/05/04 03:16:49;;;;;;;5.55;2.60;;;;;;;;;;5070176;28;20056;-79
2022/05/04 03:19:16;;;;;;;4.68;2.45;;;;;;;;;;5053828;28;20144;-78
2022/05/04 03:21:42;;;;;;;5.68;2.50;;;;;;;;;;5069782;28;20067;-79
2022/05/04 03:24:08;;;;;;;6.35;2.65;;;;;;;;;;5070713;28;20067;-79
2022/05/04 03:26:35;;;;;;;4.97;2.63;;;;;;;;;;5068810;28;20140;-78
2022/05/04 03:29:01;;;;;;;5.05;2.42;;;;;;;;;;5071210;28;20090;-79
2022/05/04 03:31:27;;;;;;;8.32;3.15;;;;;;;;;;5070179;28;20041;-79
2022/05/04 03:33:53;;;;;;;5.38;2.47;;;;;;;;;;5067406;28;20094;-79
2022/05/04 03:36:19;;;;;;;7.07;2.70;;;;;;;;;;5069055;28;20454;-78
2022/05/04 03:38:45;;;;;;;6.35;2.97;;;;;;;;;;5074379;28;20047;-79
2022/05/04 03:41:11;;;;;;;4.55;2.42;;;;;;;;;;5070386;28;20041;-78
2022/05/04 03:43:37;;;;;;;5.97;2.60;;;;;;;;;;5060211;28;20056;-78
2022/05/04 03:46:17;;;;;;;5.15;2.50;;;;;;;;;;5058018;28;20511;-79
2022/05/04 03:48:44;;;;;;;3.58;2.63;;;;;;;;;;5062119;28;20045;-79
2022/05/04 03:51:10;;;;;;;8.77;2.65;;;;;;;;;;5066754;28;20086;-79
2022/05/04 03:53:37;;;;;;;4.78;2.63;;;;;;;;;;5070275;28;20071;-79
2022/05/04 03:56:03;;;;;;;5.85;2.90;;;;;;;;;;5073009;28;20364;-79
2022/05/04 03:58:29;;;;;;;7.80;3.08;;;;;;;;;;5070957;28;20119;-79
2022/05/04 04:00:55;;;;;;;4.65;2.67;;;;;;;;;;5063796;28;20071;-78
2022/05/04 04:03:21;;;;;;;4.47;2.45;;;;;;;;;;5076337;28;20750;-79
2022/05/04 04:05:50;;;;;;;4.93;2.78;;;;;;;;;;5070367;28;20040;-78
2022/05/04 04:08:16;;;;;;;6.68;2.60;;;;;;;;;;5065324;28;20047;-79
2022/05/04 04:10:43;;;;;;;4.03;2.38;;;;;;;;;;5064518;28;20040;-79
2022/05/04 04:13:09;;;;;;;5.80;2.30;;;;;;;;;;5062096;28;20048;-79
2022/05/04 04:15:35;;;;;;;6.60;2.70;;;;;;;;;;5074666;28;20068;-79
2022/05/04 04:18:01;;;;;;;7.72;2.65;;;;;;;;;;5057375;28;20230;-78
2022/05/04 04:23:18;;;;;;;4.50;2.40;;;;;;;;;;5062227;28;20128;-79
2022/05/04 04:25:44;;;;;;;4.07;2.67;;;;;;;;;;5059422;28;20045;-79
2022/05/04 04:28:10;;;;;;;2.55;2.17;;;;;;;;;;5063859;28;20045;-79
2022/05/04 04:30:39;;;;;;;9.13;2.53;;;;;;;;;;5069325;28;20082;-79
2022/05/04 04:33:08;;;;;;;6.97;3.22;;;;;;;;;;5070869;28;20044;-79
2022/05/04 04:35:34;;;;;;;6.40;2.83;;;;;;;;;;5072460;28;20127;-79
2022/05/04 04:38:01;;;;;;;5.03;2.72;;;;;;;;;;5070711;28;20095;-79
2022/05/04 04:40:27;;;;;;;5.53;2.80;;;;;;;;;;5071008;28;20498;-79
2022/05/04 04:42:53;;;;;;;5.72;2.83;;;;;;;;;;5065753;28;20051;-79
2022/05/04 04:45:19;;;;;;;6.00;2.65;;;;;;;;;;5068677;28;20044;-78
2022/05/04 04:47:48;;;;;;;5.70;2.50;;;;;;;;;;5073938;28;20454;-79
2022/05/04 04:50:17;;;;;;;3.17;2.67;;;;;;;;;;5064621;28;20488;-79
2022/05/04 04:52:43;;;;;;;6.40;2.90;;;;;;;;;;5068665;28;20086;-78
2022/05/04 04:55:10;;;;;;;5.78;2.50;;;;;;;;;;5064890;28;20040;-79
2022/05/04 04:57:36;;;;;;;5.63;2.63;;;;;;;;;;5072278;28;20184;-79
2022/05/04 05:00:03;;;;;;;4.95;2.65;;;;;;;;;;5066375;28;20080;-79
2022/05/04 05:02:29;;;;;;;3.53;2.30;;;;;;;;;;5065670;28;20087;-78
2022/05/04 05:04:55;;;;;;;7.35;2.95;;;;;;;;;;5068119;28;20049;-79
2022/05/04 05:07:21;;;;;;;7.45;2.90;;;;;;;;;;5055197;28;20088;-79
2022/05/04 05:09:49;;;;;;;6.65;3.00;;;;;;;;;;5063615;28;20084;-79
2022/05/04 05:12:16;;;;;;;4.70;2.72;;;;;;;;;;5073771;28;20123;-79
2022/05/04 05:17:28;;;;;;;5.05;2.70;;;;;;;;;;5073636;28;20045;-79
2022/05/04 05:19:54;;;;;;;6.20;2.55;;;;;;;;;;5065430;28;20056;-80
2022/05/04 05:22:20;;;;;;;7.88;3.20;;;;;;;;;;5068005;28;20106;-79
2022/05/04 05:24:46;;;;;;;5.93;3.03;;;;;;;;;;5068984;28;20036;-79
2022/05/04 05:27:12;;;;;;;7.13;2.70;;;;;;;;;;5074237;28;20078;-80
2022/05/04 05:29:38;;;;;;;5.68;2.92;;;;;;;;;;5064346;28;20076;-79
2022/05/04 05:32:05;;;;;;;3.92;2.47;;;;;;;;;;5066351;28;20043;-78
2022/05/04 05:34:33;;;;;;;5.53;2.60;;;;;;;;;;5068621;28;20080;-78
2022/05/04 05:37:00;;;;;;;4.82;2.67;;;;;;;;;;5076851;28;20068;-78
2022/05/04 05:39:26;;;;;;;4.38;2.60;;;;;;;;;;5066301;28;20040;-78
2022/05/04 05:41:52;;;;;;;4.82;2.78;;;;;;;;;;5073360;28;20044;-78
2022/05/04 05:44:18;;;;;;;7.60;2.90;;;;;;;;;;5065257;28;20040;-78
2022/05/04 05:46:44;;;;;;;5.63;2.70;;;;;;;;;;5069570;28;20058;-78
2022/05/04 05:49:10;;;;;;;3.83;2.60;;;;;;;;;;5066956;28;20059;-78
2022/05/04 05:51:36;;;;;;;7.90;2.60;;;;;;;;;;5074900;28;21965;-78
2022/05/04 05:54:05;;;;;;;6.43;2.47;;;;;;;;;;5078669;28;20059;-78
2022/05/04 05:56:31;;;;;;;4.25;2.45;;;;;;;;;;5070061;28;20045;-78
2022/05/04 05:58:57;;;;;;;5.10;2.65;;;;;;;;;;5078463;28;20048;-78
2022/05/04 06:01:23;;;;;;;4.22;2.53;;;;;;;;;;5073166;28;20127;-78
2022/05/04 06:03:50;;;;;;;5.72;2.67;;;;;;;;;;5083645;28;20123;-78
2022/05/04 06:06:16;;;;;;;7.68;2.60;;;;;;;;;;5081959;28;20479;-78
2022/05/04 06:08:45;;;;;;;3.80;2.50;;;;;;;;;;5068268;28;20040;-78
2022/05/04 06:11:11;;;;;;;7.57;2.50;;;;;;;;;;5087749;28;20048;-78
2022/05/04 06:13:37;;;;;;;6.63;2.80;;;;;;;;;;5080396;28;20041;-78
2022/05/04 06:16:03;;;;;;;6.35;2.33;;;;;;;;;;5073360;28;20182;-78
2022/05/04 06:18:31;;;;;;;5.97;2.83;;;;;;;;;;5071395;28;20049;-78
2022/05/04 06:21:01;;;;;;;5.70;2.50;;;;;;;;;;5075056;28;20069;-78
2022/05/04 06:23:27;;;;;;;4.97;2.58;;;;;;;;;;5066277;28;20048;-78
2022/05/04 06:25:53;;;;;;;7.05;2.88;;;;;;;;;;5072472;28;20131;-78
2022/05/04 06:28:19;;;;;;;4.53;2.65;;;;;;;;;;5072529;28;20417;-79
2022/05/04 06:36:15;;;;;;;5.97;2.80;;;;;;;;;;5081290;28;20051;-78
2022/05/04 06:38:41;;;;;;;6.68;3.08;;;;;;;;;;5065789;28;20066;-79
2022/05/04 06:41:07;;;;;;;7.05;3.45;;;;;;;;;;5070028;28;20044;-79
2022/05/04 06:43:34;;;;;;;6.50;3.10;;;;;;;;;;5073673;28;20033;-78
2022/05/04 06:46:01;;;;;;;8.00;3.00;;;;;;;;;;5077594;28;20131;-79
2022/05/04 06:48:27;;;;;;;7.68;3.53;;;;;;;;;;5075134;28;20048;-78
2022/05/04 06:50:53;;;;;;;9.38;3.22;;;;;;;;;;5070479;28;20053;-78
2022/05/04 06:53:19;;;;;;;4.30;3.10;;;;;;;;;;5014191;28;20445;-78
2022/05/04 06:55:48;;;;;;;5.60;2.75;;;;;;;;;;5033457;28;20045;-78
2022/05/04 06:58:14;;;;;;;6.53;2.95;;;;;;;;;;5036292;28;20096;-78
2022/05/04 07:00:40;;;;;;;4.43;2.60;;;;;;;;;;5029858;28;20033;-78
2022/05/04 07:03:06;;;;;;;3.25;2.30;;;;;;;;;;5033074;28;20057;-78
2022/05/04 07:05:32;;;;;;;3.15;2.40;;;;;;;;;;5033598;28;20037;-78
2022/05/04 07:07:58;;;;;;;5.25;2.70;;;;;;;;;;5027092;28;20538;-78
2022/05/04 07:10:24;;;;;;;4.38;2.50;;;;;;;;;;5028404;28;20482;-80
2022/05/04 07:12:50;;;;;;;4.25;2.42;;;;;;;;;;5030409;28;20052;-77
2022/05/04 07:15:17;;;;;;;4.88;2.50;;;;;;;;;;5003199;28;20066;-77
2022/05/04 07:17:43;;;;;;;3.58;2.28;;;;;;;;;;5011444;28;20039;-77
2022/05/04 07:20:10;;;;;;;6.95;2.67;;;;;;;;;;5029614;28;20501;-81
2022/05/04 07:22:36;;;;;;;4.82;3.00;;;;;;;;;;5016535;28;20081;-79
2022/05/04 07:25:03;;;;;;;5.35;2.58;;;;;;;;;;5038851;28;20763;-79
2022/05/04 07:27:29;;;;;;;3.60;2.45;;;;;;;;;;5018731;28;20475;-79
2022/05/04 07:29:55;;;;;;;7.03;2.50;;;;;;;;;;5027841;28;20386;-77
2022/05/04 07:32:21;;;;;;;5.68;3.05;;;;;;;;;;5009554;28;20054;-82
2022/05/04 07:34:47;;;;;;;6.45;2.50;;;;;;;;;;5016477;28;20440;-76
2022/05/04 07:37:13;;;;;;;5.93;2.58;;;;;;;;;;5038922;28;20556;-77
2022/05/04 07:42:24;;;;;;;5.20;2.50;;;;;;;;;;5021027;28;20054;-76
2022/05/04 07:45:00;;;;;;;6.47;2.70;;;;;;;;;;5007994;28;20054;-77
2022/05/04 07:47:27;;;;;;;5.35;2.75;;;;;;;;;;5016860;28;20081;-80
2022/05/04 07:49:53;;;;;;;6.00;2.53;;;;;;;;;;5018415;28;20041;-79
2022/05/04 07:52:20;;;;;;;4.20;2.42;;;;;;;;;;5022738;28;20037;-81
2022/05/04 07:54:46;;;;;;;5.75;2.58;;;;;;;;;;4996915;28;20124;-80
2022/05/04 07:57:12;;;;;;;5.32;2.70;;;;;;;;;;5014218;28;20053;-81
2022/05/04 07:59:38;;;;;;;5.70;2.50;;;;;;;;;;5005064;28;20068;-79
2022/05/04 08:04:52;;;;;;;3.88;2.47;;;;;;;;;;5007913;28;20045;-78
2022/05/04 08:07:18;;;;;;;6.32;2.50;;;;;;;;;;5012671;28;20473;-78
2022/05/04 08:09:45;;;;;;;6.07;2.60;;;;;;;;;;5017217;28;20045;-78
2022/05/04 08:12:12;;;;;;;4.03;2.50;;;;;;;;;;5016352;28;20034;-78
2022/05/04 08:14:39;;;;;;;4.18;2.58;;;;;;;;;;5003108;28;20109;-79
2022/05/04 08:17:05;;;;;;;3.97;2.35;;;;;;;;;;5006523;28;20068;-78
2022/05/04 08:19:31;;;;;;;5.18;2.60;;;;;;;;;;4990348;28;20181;-78
2022/05/04 08:21:57;;;;;;;6.72;2.53;;;;;;;;;;5006446;28;20053;-80
2022/05/04 08:24:24;;;;;;;3.13;2.45;;;;;;;;;;5010735;28;20034;-84
2022/05/04 08:26:50;;;;;;;5.15;2.58;;;;;;;;;;5013326;28;20045;-83
2022/05/04 08:29:16;;;;;;;5.10;2.60;;;;;;;;;;5010194;28;20393;-83
2022/05/04 08:31:43;;;;;;;5.53;2.53;;;;;;;;;;5039601;28;20099;-78
2022/05/04 08:34:09;;;;;;;7.10;2.90;;;;;;;;;;5006344;28;20053;-78
2022/05/04 08:36:38;;;;;;;4.65;2.42;;;;;;;;;;5007879;28;20117;-76
2022/05/04 08:39:07;;;;;;;5.43;2.88;;;;;;;;;;4998202;28;20456;-77
2022/05/04 08:41:36;;;;;;;3.97;2.60;;;;;;;;;;5034173;28;20046;-81
2022/05/04 08:44:03;;;;;;;5.15;2.45;;;;;;;;;;4997833;28;20503;-78
2022/05/04 08:46:32;;;;;;;4.03;2.60;;;;;;;;;;5031461;28;20468;-81
2022/05/04 08:48:59;;;;;;;5.55;2.60;;;;;;;;;;5001093;28;20053;-82
2022/05/04 08:51:25;;;;;;;4.43;2.60;;;;;;;;;;5000395;28;20092;-83
2022/05/04 08:53:51;;;;;;;6.68;2.60;;;;;;;;;;5009535;28;20156;-82
2022/05/04 08:56:17;;;;;;;3.22;2.50;;;;;;;;;;5024053;28;20127;-86
2022/05/04 08:58:43;;;;;;;2.88;2.55;;;;;;;;;;5023086;28;20489;-79
2022/05/04 09:01:09;;;;;;;5.60;2.65;;;;;;;;;;5010813;28;20612;-81
2022/05/04 09:03:37;;;;;;;6.00;2.70;;;;;;;;;;5020684;28;20037;-80
2022/05/04 09:06:07;;;;;;;6.35;2.53;;;;;;;;;;5008855;28;20402;-80
2022/05/04 09:08:52;;;;;;;6.47;2.92;;;;;;;;;;5005257;28;20234;-82
2022/05/04 09:11:21;;;;;;;4.85;2.78;;;;;;;;;;5008383;28;20100;-87
2022/05/04 09:13:47;;;;;;;5.35;2.75;;;;;;;;;;5008399;28;20103;-78
2022/05/04 09:16:24;;;;;;;5.38;2.95;;;;;;;;;;5039344;28;20410;-79
2022/05/04 09:18:50;;;;;;;8.50;3.22;;;;;;;;;;4998598;28;20081;-78
2022/05/04 09:21:21;;;;;;;5.53;2.88;;;;;;;;;;4999397;28;20085;-75
2022/05/04 09:23:49;;;;;;;4.80;2.60;;;;;;;;;;5003218;28;20046;-77
2022/05/04 09:26:15;;;;;;;4.63;2.50;;;;;;;;;;5036514;28;20095;-77
2022/05/04 09:28:41;;;;;;;5.07;2.78;;;;;;;;;;5007560;28;20049;-77
2022/05/04 09:31:08;;;;;;;4.80;2.65;;;;;;;;;;5018113;28;20045;-76
2022/05/04 09:33:35;;;;;;;3.75;2.72;;;;;;;;;;5019123;28;20116;-76
2022/05/04 09:36:05;;;;;;;5.32;3.13;;;;;;;;;;5032807;28;20038;-76
2022/05/04 09:46:53;;;;;;;5.88;3.30;;;;;;;;;;5012387;28;20053;-76
2022/05/04 09:49:20;;;;;;;5.47;2.88;;;;;;;;;;5002548;28;20090;-76
2022/05/04 09:51:53;;;;;;;5.35;2.65;;;;;;;;;;5006406;28;20058;-77
2022/05/04 09:54:29;;;;;;;5.80;3.00;;;;;;;;;;5036139;28;20042;-76
2022/05/04 09:56:56;;;;;;;4.78;2.90;;;;;;;;;;5009863;28;20045;-78
2022/05/04 09:59:25;;;;;;;5.50;2.60;;;;;;;;;;4998510;28;20481;-84
2022/05/04 10:01:51;;;;;;;3.63;3.00;;;;;;;;;;5037782;28;20438;-85
2022/05/04 10:04:20;;;;;;;5.40;2.95;;;;;;;;;;5039753;28;20045;-83
2022/05/04 10:06:47;;;;;;;3.47;2.67;;;;;;;;;;5039882;28;20056;-84
2022/05/04 10:09:13;;;;;;;8.70;2.97;;;;;;;;;;5001495;28;20141;-85
2022/05/04 10:11:39;;;;;;;5.97;3.05;;;;;;;;;;5003977;28;20363;-81
2022/05/04 10:14:10;;;;;;;7.57;3.08;;;;;;;;;;5006047;28;20050;-86
2022/05/04 10:16:46;;;;;;;3.92;2.92;;;;;;;;;;5037564;28;20121;-84
2022/05/04 10:19:15;;;;;;;6.90;3.05;;;;;;;;;;5011198;28;20053;-82
2022/05/04 10:21:43;;;;;;;4.68;3.17;;;;;;;;;;5034724;28;20096;-82
2022/05/04 10:24:10;;;;;;;6.70;2.92;;;;;;;;;;5011883;28;20073;-82
2022/05/04 10:26:37;;;;;;;4.65;3.08;;;;;;;;;;4996969;28;20038;-87
2022/05/04 10:32:10;;;;;;;8.85;3.35;;;;;;;;;;5025564;28;20046;-83
2022/05/04 10:34:45;;;;;;;8.40;2.95;;;;;;;;;;5001254;28;20049;-82
2022/05/04 10:37:11;;;;;;;4.72;2.97;;;;;;;;;;5034513;28;20050;-81
2022/05/04 10:39:37;;;;;;;6.32;3.10;;;;;;;;;;4999464;28;20042;-81
2022/05/04 10:42:03;;;;;;;5.00;3.03;;;;;;;;;;4996616;28;20072;-81
2022/05/04 10:44:47;;;;;;;6.57;3.20;;;;;;;;;;4996936;28;20076;-80
2022/05/04 10:47:18;;;;;;;6.82;3.40;;;;;;;;;;5034196;28;20069;-82
2022/05/04 10:49:44;;;;;;;3.03;2.70;;;;;;;;;;5011430;28;20085;-84
2022/05/04 10:52:10;;;;;;;5.18;3.10;;;;;;;;;;5007681;28;20050;-81
2022/05/04 10:54:47;;;;;;;5.03;2.97;;;;;;;;;;5007840;28;20116;-80
2022/05/04 10:57:14;;;;;;;4.63;3.10;;;;;;;;;;5043243;28;20493;-80
2022/05/04 10:59:40;;;;;;;5.70;3.38;;;;;;;;;;5009583;28;20457;-80
2022/05/04 11:02:12;;;;;;;5.25;3.22;;;;;;;;;;4997459;28;20046;-80
2022/05/04 11:04:40;;;;;;;7.10;3.03;;;;;;;;;;5000803;28;20098;-80
2022/05/04 11:07:07;;;;;;;6.13;2.80;;;;;;;;;;4999638;28;21942;-79
2022/05/04 11:09:43;;;;;;;3.72;2.88;;;;;;;;;;5013665;28;20502;-83
2022/05/04 11:12:10;;;;;;;6.28;3.40;;;;;;;;;;5013902;28;20498;-85
2022/05/04 11:14:36;;;;;;;5.93;3.25;;;;;;;;;;4998200;28;20058;-84
2022/05/04 11:17:08;;;;;;;5.35;3.00;;;;;;;;;;5006063;28;20050;-82
2022/05/04 11:19:34;;;;;;;4.22;3.03;;;;;;;;;;5002553;28;20057;-79
2022/05/04 11:22:01;;;;;;;3.72;2.92;;;;;;;;;;4993077;28;20714;-83
2022/05/04 11:24:27;;;;;;;6.47;3.67;;;;;;;;;;5037387;28;20405;-79
2022/05/04 11:26:54;;;;;;;4.22;2.90;;;;;;;;;;5009292;28;20104;-80
2022/05/04 11:29:24;;;;;;;6.35;3.20;;;;;;;;;;5006627;28;20156;-82
2022/05/04 11:31:56;;;;;;;6.30;3.10;;;;;;;;;;5009930;28;20050;-83
2022/05/04 11:34:25;;;;;;;5.63;3.00;;;;;;;;;;5000083;28;20192;-86
2022/05/04 11:36:52;;;;;;;6.28;3.08;;;;;;;;;;5012051;28;20045;-85
2022/05/04 11:39:22;;;;;;;5.28;3.08;;;;;;;;;;5003202;28;20049;-83
2022/05/04 11:41:53;;;;;;;3.83;3.03;;;;;;;;;;5040324;28;20390;-83
2022/05/04 11:44:23;;;;;;;5.80;3.15;;;;;;;;;;5002294;28;20048;-84
2022/05/04 11:46:53;;;;;;;8.10;3.05;;;;;;;;;;5039599;28;20053;-83
2022/05/04 11:49:20;;;;;;;6.00;3.10;;;;;;;;;;5038253;28;20074;-85
2022/05/04 11:51:46;;;;;;;6.05;3.25;;;;;;;;;;5005382;28;20435;-83
2022/05/04 11:54:13;;;;;;;6.78;3.45;;;;;;;;;;5013717;28;20381;-85
2022/05/04 11:56:42;;;;;;;7.55;3.78;;;;;;;;;;5008970;28;20049;-81
2022/05/04 11:59:08;;;;;;;3.92;2.90;;;;;;;;;;5008277;28;20038;-82
2022/05/04 12:01:34;;;;;;;5.70;3.00;;;;;;;;;;5007151;28;20084;-85
2022/05/04 12:04:04;;;;;;;6.72;3.10;;;;;;;;;;5005420;28;20054;-81
2022/05/04 12:06:33;;;;;;;5.72;3.00;;;;;;;;;;5002198;28;20042;-81
2022/05/04 12:08:59;;;;;;;6.97;3.05;;;;;;;;;;5008081;28;20117;-81
2022/05/04 12:11:26;;;;;;;5.95;2.90;;;;;;;;;;5008502;28;20096;-81
2022/05/04 12:13:59;;;;;;;4.78;3.22;;;;;;;;;;5006265;28;20062;-84
2022/05/04 12:16:25;;;;;;;6.65;3.20;;;;;;;;;;5000120;28;20049;-81
2022/05/04 12:18:51;;;;;;;5.78;3.15;;;;;;;;;;4999958;28;20214;-86
2022/05/04 12:21:21;;;;;;;4.25;2.85;;;;;;;;;;5010626;28;20136;-83
2022/05/04 12:23:51;;;;;;;3.67;2.63;;;;;;;;;;4998795;28;20157;-81
2022/05/04 12:26:18;;;;;;;4.20;2.75;;;;;;;;;;5029987;28;20468;-82
2022/05/04 12:33:08;;;;;;;6.03;2.78;;;;;;;;;;4998629;28;20034;-82
2022/05/04 12:34:16;;;;;;;5.35;2.85;;;;;;;;;;5000851;28;20117;-84
2022/05/04 12:36:43;;;;;;;6.90;3.28;;;;;;;;;;5024204;28;20466;-83
2022/05/04 12:39:09;;;;;;;5.43;2.83;;;;;;;;;;4994037;28;20518;-84
2022/05/04 12:41:36;;;;;;;3.45;2.60;;;;;;;;;;5002661;28;20048;-84
2022/05/04 12:44:04;;;;;;;5.57;2.90;;;;;;;;;;4990227;28;21040;-83
2022/05/04 12:46:30;;;;;;;3.53;2.70;;;;;;;;;;5001810;28;20259;-84
2022/05/04 12:48:59;;;;;;;5.57;2.95;;;;;;;;;;5008088;28;20946;-84
2022/05/04 12:51:29;;;;;;;4.88;3.03;;;;;;;;;;5033749;28;20054;-82
2022/05/04 12:53:55;;;;;;;5.63;2.75;;;;;;;;;;4993493;28;20592;-82
2022/05/04 12:59:06;;;;;;;4.35;2.88;;;;;;;;;;5030767;28;20061;-82
2022/05/04 13:01:34;;;;;;;5.90;3.03;;;;;;;;;;5000701;28;20057;-82
2022/05/04 13:04:01;;;;;;;5.82;3.15;;;;;;;;;;4993004;28;20508;-84
2022/05/04 13:06:27;;;;;;;6.57;3.30;;;;;;;;;;4994282;28;20041;-83
2022/05/04 13:08:53;;;;;;;6.57;3.30;;;;;;;;;;4995631;28;20041;-84
2022/05/04 13:11:20;;;;;;;7.15;3.25;;;;;;;;;;5022170;28;20057;-83
2022/05/04 13:13:46;;;;;;;6.90;3.20;;;;;;;;;;5024932;28;20448;-81
2022/05/04 13:16:12;;;;;;;5.03;3.03;;;;;;;;;;5013098;28;20052;-81
2022/05/04 13:18:38;;;;;;;5.03;3.17;;;;;;;;;;5007150;28;20049;-84
2022/05/04 13:21:06;;;;;;;5.55;3.20;;;;;;;;;;5038268;28;20109;-83
2022/05/04 13:23:32;;;;;;;4.25;3.10;;;;;;;;;;5043356;28;20160;-83
2022/05/04 13:26:01;;;;;;;3.20;2.90;;;;;;;;;;5013877;28;20128;-83
2022/05/04 13:28:28;;;;;;;6.63;3.72;;;;;;;;;;4997499;28;20046;-82
2022/05/04 13:30:54;;;;;;;6.10;3.67;;;;;;;;;;5020153;28;20050;-83
2022/05/04 13:33:20;;;;;;;6.72;4.00;;;;;;;;;;5020429;28;20042;-82
2022/05/04 13:35:47;;;;;;;8.55;3.92;;;;;;;;;;5019462;28;20064;-81
2022/05/04 13:38:13;;;;;;;5.25;3.42;;;;;;;;;;4994277;28;20048;-81
2022/05/04 13:40:39;;;;;;;5.55;3.60;;;;;;;;;;4989014;28;20046;-80
2022/05/04 13:43:05;;;;;;;7.50;3.58;;;;;;;;;;4996943;28;20075;-80
2022/05/04 13:45:31;;;;;;;5.25;3.50;;;;;;;;;;4999113;28;20053;-80
2022/05/04 13:47:57;;;;;;;5.55;3.63;;;;;;;;;;4989740;28;20575;-83
2022/05/04 13:53:14;;;;;;;5.95;3.58;;;;;;;;;;5030431;28;20449;-81
2022/05/04 13:55:41;;;;;;;5.82;3.80;;;;;;;;;;5017840;28;20053;-81
2022/05/04 13:58:06;;;;;;;7.28;3.28;;;;;;;;;;4990329;28;20498;-82
2022/05/04 14:00:33;;;;;;;6.05;3.38;;;;;;;;;;4995970;28;20095;-83
2022/05/04 14:02:59;;;;;;;5.85;3.67;;;;;;;;;;5028145;28;20489;-84
2022/05/04 14:05:25;;;;;;;7.78;3.75;;;;;;;;;;4994467;28;20038;-85
2022/05/04 14:07:52;;;;;;;6.78;3.38;;;;;;;;;;5021874;28;20085;-86
2022/05/04 14:10:18;;;;;;;6.05;3.53;;;;;;;;;;4996924;28;20056;-86
2022/05/04 14:12:44;;;;;;;6.00;3.47;;;;;;;;;;4998841;28;21226;-85
2022/05/04 14:15:11;;;;;;;5.18;3.30;;;;;;;;;;4997151;28;20080;-85
2022/05/04 14:17:37;;;;;;;5.65;3.30;;;;;;;;;;5001736;28;20109;-86
2022/05/04 14:20:04;;;;;;;5.90;3.25;;;;;;;;;;5043642;28;20108;-82
2022/05/04 14:22:30;;;;;;;7.55;3.65;;;;;;;;;;5018881;28;20133;-84
2022/05/04 14:24:56;;;;;;;5.07;3.10;;;;;;;;;;5011645;28;20121;-85
2022/05/04 14:27:23;;;;;;;5.70;3.15;;;;;;;;;;4999103;28;20058;-82
2022/05/04 14:29:49;;;;;;;5.38;3.10;;;;;;;;;;4993694;28;20141;-85
2022/05/04 14:32:15;;;;;;;5.85;3.40;;;;;;;;;;5025321;28;20055;-84
2022/05/04 14:34:41;;;;;;;4.35;2.95;;;;;;;;;;4996198;28;20683;-87
2022/05/04 14:37:07;;;;;;;4.43;3.10;;;;;;;;;;5024550;28;20490;-88
2022/05/04 14:39:33;;;;;;;7.10;3.33;;;;;;;;;;5032494;28;20402;-87
2022/05/04 14:41:59;;;;;;;4.75;2.88;;;;;;;;;;5029189;28;20852;-87
2022/05/04 14:44:25;;;;;;;5.45;3.08;;;;;;;;;;4995279;28;20573;-88
2022/05/04 14:46:51;;;;;;;6.22;3.03;;;;;;;;;;5033411;28;20053;-87
2022/05/04 14:49:17;;;;;;;6.25;3.38;;;;;;;;;;4998715;28;20061;-86
2022/05/04 14:51:44;;;;;;;3.88;2.97;;;;;;;;;;4994783;28;20042;-81
2022/05/04 14:54:10;;;;;;;4.95;3.00;;;;;;;;;;5003417;28;20034;-83
2022/05/04 14:56:39;;;;;;;6.18;3.05;;;;;;;;;;4992951;28;20045;-79
2022/05/04 14:59:05;;;;;;;7.38;2.95;;;;;;;;;;5000914;28;20048;-78
2022/05/04 15:01:31;;;;;;;8.38;3.72;;;;;;;;;;4992858;28;20037;-80
2022/05/04 15:06:41;;;;;;;6.18;2.85;;;;;;;;;;4996410;28;21757;-84
2022/05/04 15:09:07;;;;;;;5.30;3.40;;;;;;;;;;5034191;28;20045;-82
2022/05/04 15:11:33;;;;;;;4.05;2.70;;;;;;;;;;4998065;28;20444;-81
2022/05/04 15:13:59;;;;;;;5.40;3.00;;;;;;;;;;4994474;28;20055;-85
2022/05/04 15:16:25;;;;;;;6.55;3.20;;;;;;;;;;4998243;28;20124;-83
2022/05/04 15:18:51;;;;;;;6.85;3.10;;;;;;;;;;4994698;28;20081;-86
2022/05/04 15:21:18;;;;;;;4.68;2.83;;;;;;;;;;5004541;28;20143;-84
2022/05/04 15:23:44;;;;;;;6.25;2.88;;;;;;;;;;5000899;28;20046;-85
2022/05/04 15:26:10;;;;;;;5.05;2.67;;;;;;;;;;4999008;28;20382;-88